Data for 05/23/2009

Time Sea-Level Adjusted Pressure Absolute Pressure Temperature Relative Humidity Dew Point   
(mb) (inHg) (mb) (inHg) (C) (F) (%) (C) (F)
00:05 1021 30.15 850 25.1 10.5 50.8 46 -0.5 31.1
00:10 1021 30.15 850 25.1 10.4 50.7 46 -0.7 30.7
00:15 1021 30.15 850 25.1 10.3 50.5 47 -0.6 30.9
00:20 1021 30.15 850 25.1 10.2 50.4 47 -0.7 30.8
00:25 1021 30.15 850 25.1 10.2 50.3 47 -0.7 30.8
00:30 1021 30.15 850 25.1 10.1 50.2 47 -0.6 30.9
00:35 1021 30.15 850 25.1 10 50.1 47 -0.7 30.8
00:40 1021 30.15 850 25.1 10 50.1 47 -0.7 30.8
00:45 1021 30.15 850 25.1 9.9 49.8 48 -0.6 30.9
00:50 1021 30.15 850 25.1 9.8 49.7 48 -0.7 30.7
00:55 1021 30.15 850 25.1 9.8 49.6 48 -0.7 30.8
01:00 1021 30.15 850 25.1 9.8 49.6 48 -0.7 30.7
01:05 1021 30.15 850 25.1 9.7 49.5 48 -0.7 30.8
01:10 1020 30.12 850 25.1 9.7 49.4 48 -0.7 30.7
01:15 1020 30.12 850 25.1 9.6 49.3 48 -0.7 30.8
01:20 1020 30.12 850 25.1 9.5 49.2 49 -0.6 30.9
01:25 1020 30.12 850 25.1 9.5 49 49 -0.6 30.9
01:30 1020 30.12 850 25.1 9.4 48.9 50 -0.5 31
01:35 1020 30.12 850 25.1 9.3 48.8 50 -0.5 31
01:40 1020 30.12 849 25.07 9.3 48.7 50 -0.6 30.9
01:45 1020 30.12 849 25.07 9.3 48.7 50 -0.6 31
01:50 1020 30.12 849 25.07 9.2 48.5 50 -0.6 30.8
01:55 1020 30.12 849 25.07 9.2 48.5 50 -0.6 30.9
02:00 1020 30.12 849 25.07 9.1 48.4 51 -0.5 31
02:05 1020 30.12 849 25.07 9 48.2 51 -0.6 30.9
02:10 1020 30.12 849 25.07 8.9 48.1 51 -0.6 30.8
02:15 1020 30.12 849 25.07 8.9 48 51 -0.6 30.8
02:20 1020 30.12 849 25.07 8.9 48.1 51 -0.6 30.9
02:25 1020 30.12 849 25.07 8.9 48.1 51 -0.6 30.9
02:30 1020 30.12 849 25.07 8.9 48 51 -0.6 30.9
02:35 1020 30.12 849 25.07 8.8 47.8 52 -0.6 31
02:40 1020 30.12 849 25.07 8.7 47.7 52 -0.5 31
02:45 1020 30.12 849 25.07 8.6 47.5 52 -0.6 31
02:50 1020 30.12 849 25.07 8.6 47.4 53 -0.5 31
02:55 1020 30.12 849 25.07 8.6 47.4 53 -0.6 31
03:00 1020 30.12 849 25.07 8.5 47.3 53 -0.5 31.1
03:05 1020 30.12 849 25.07 8.5 47.3 53 -0.5 31
03:10 1020 30.12 849 25.07 8.6 47.4 53 -0.5 31.1
03:15 1020 30.12 849 25.07 8.5 47.2 53 -0.5 31.2
03:20 1020 30.12 849 25.07 8.5 47.2 53 -0.5 31.1
03:25 1020 30.12 849 25.07 8.5 47.2 53 -0.5 31.2
03:30 1020 30.12 849 25.07 8.5 47.3 53 -0.4 31.2
03:35 1020 30.12 849 25.07 8.5 47.2 54 -0.4 31.3
03:40 1020 30.12 849 25.07 8.4 47.1 54 -0.4 31.3
03:45 1020 30.12 849 25.07 8.4 47.1 54 -0.4 31.3
03:50 1020 30.12 849 25.07 8.4 47.2 54 -0.4 31.3
03:55 1020 30.12 849 25.07 8.5 47.2 54 -0.4 31.3
04:00 1020 30.12 849 25.07 8.5 47.2 53 -0.5 31.2
04:05 1020 30.12 849 25.07 8.5 47.3 53 -0.5 31.1
04:10 1020 30.12 849 25.07 8.5 47.3 53 -0.5 31.1
04:15 1020 30.12 849 25.07 8.4 47.2 53 -0.5 31.1
04:20 1020 30.12 849 25.07 8.4 47.2 53 -0.5 31
04:25 1020 30.12 849 25.07 8.3 47 53 -0.6 30.8
04:30 1020 30.12 849 25.07 8.3 46.9 53 -0.7 30.8
04:35 1020 30.12 849 25.07 8.3 46.9 53 -0.7 30.8
04:40 1020 30.12 849 25.07 8.3 47 53 -0.7 30.7
04:45 1020 30.12 849 25.07 8.3 47 53 -0.7 30.8
04:50 1020 30.12 849 25.07 8.3 46.9 53 -0.6 30.9
04:55 1020 30.12 849 25.07 8.3 46.9 53 -0.6 30.9
05:00 1020 30.12 849 25.07 8.3 46.9 53 -0.6 30.9
05:05 1020 30.12 849 25.07 8.3 46.9 53 -0.7 30.7
05:10 1020 30.12 849 25.07 8.3 46.9 53 -0.7 30.8
05:15 1020 30.12 849 25.07 8.3 46.9 53 -0.7 30.7
05:20 1020 30.12 849 25.07 8.2 46.8 53 -0.7 30.7
05:25 1020 30.12 849 25.07 8.1 46.6 53 -0.8 30.6
05:30 1020 30.12 849 25.07 8.1 46.6 53 -0.8 30.6
05:35 1020 30.12 849 25.07 8.1 46.5 54 -0.8 30.6
05:40 1019 30.09 849 25.07 8 46.4 54 -0.8 30.6
05:45 1020 30.12 849 25.07 8 46.4 54 -0.8 30.6
05:50 1019 30.09 849 25.07 8 46.4 54 -0.7 30.7
05:55 1019 30.09 849 25.07 8 46.4 54 -0.7 30.7
06:00 1019 30.09 849 25.07 8 46.5 54 -0.6 30.9
06:05 1019 30.09 848 25.04 8.1 46.6 54 -0.7 30.7
06:10 1019 30.09 849 25.07 8.1 46.6 53 -0.7 30.7
06:15 1019 30.09 849 25.07 8.2 46.7 54 -0.7 30.8
06:20 1019 30.09 849 25.07 8.3 46.9 53 -0.7 30.8
06:25 1020 30.12 849 25.07 8.4 47.1 53 -0.6 30.9
06:30 1020 30.12 849 25.07 8.4 47.2 53 -0.6 31
06:35 1020 30.12 849 25.07 8.5 47.3 53 -0.6 30.9
06:40 1020 30.12 849 25.07 8.6 47.4 53 -0.5 31
06:45 1020 30.12 849 25.07 8.6 47.5 53 -0.5 31.2
06:50 1020 30.12 849 25.07 8.5 47.4 53 -0.5 31
06:55 1020 30.12 849 25.07 8.5 47.4 53 -0.6 31
07:00 1020 30.12 849 25.07 8.6 47.4 52 -0.6 30.9
07:05 1020 30.12 849 25.07 8.7 47.7 52 -0.5 31.1
07:10 1020 30.12 849 25.07 8.8 47.9 52 -0.5 31.1
07:15 1020 30.12 849 25.07 9 48.2 51 -0.5 31.1
07:20 1020 30.12 849 25.07 8.9 48 52 -0.3 31.4
07:25 1020 30.12 849 25.07 8.9 48 52 -0.4 31.2
07:30 1020 30.12 849 25.07 9.4 48.8 51 -0.3 31.5
07:35 1020 30.12 849 25.07 9.6 49.2 50 -0.4 31.3
07:40 1020 30.12 849 25.07 9.6 49.3 50 -0.2 31.6
07:45 1020 30.12 849 25.07 10.1 50.3 49 -0.1 31.8
07:50 1020 30.12 849 25.07 10.5 50.9 48 0.1 32.2
07:55 1020 30.12 849 25.07 10.8 51.4 47 0.1 32.2
08:00 1020 30.12 849 25.07 11.3 52.3 47 0.4 32.7
08:05 1020 30.12 849 25.07 11.1 51.9 49 0.8 33.4
08:10 1020 30.12 849 25.07 11 51.9 48 0.6 33
08:15 1020 30.12 849 25.07 11.2 52.1 48 0.7 33.3
08:20 1020 30.12 849 25.07 10.9 51.7 49 0.7 33.2
08:25 1020 30.12 849 25.07 11.1 52 49 0.8 33.4
08:30 1020 30.12 849 25.07 11.3 52.3 48 0.6 33.1
08:35 1020 30.12 849 25.07 11.4 52.5 48 0.9 33.6
08:40 1020 30.12 849 25.07 11.6 52.8 48 0.9 33.6
08:45 1020 30.12 849 25.07 11.9 53.4 47 0.9 33.7
08:50 1020 30.12 849 25.07 12.1 53.7 47 1.1 33.9
08:55 1020 30.12 849 25.07 12.3 54.2 45 0.8 33.4
09:00 1020 30.12 849 25.07 12.4 54.3 45 1 33.7
09:05 1020 30.12 849 25.07 12.7 54.9 46 1.3 34.4
09:10 1020 30.12 849 25.07 13.5 56.2 42 0.9 33.7
09:15 1020 30.12 849 25.07 14 57.1 43 1.7 35.1
09:20 1020 30.12 849 25.07 13.7 56.6 43 1.4 34.5
09:25 1020 30.12 849 25.07 13.8 56.8 42 1.3 34.3
09:30 1020 30.12 849 25.07 14.2 57.5 42 1.4 34.5
09:35 1020 30.12 849 25.07 14.3 57.7 41 1.3 34.4
09:40 1020 30.12 849 25.07 14.4 57.8 42 1.7 35
09:45 1020 30.12 849 25.07 14.3 57.7 42 1.5 34.7
09:50 1020 30.12 849 25.07 14.7 58.5 40 1.2 34.2
09:55 1020 30.12 849 25.07 14.9 58.8 39 1.3 34.3
10:00 1020 30.12 849 25.07 15.6 60.1 39 1.7 35.1
10:05 1020 30.12 849 25.07 15.6 60.1 39 1.7 35.1
10:10 1020 30.12 849 25.07 15.8 60.5 40 2.4 36.4
10:15 1020 30.12 849 25.07 15.9 60.5 39 2 35.5
10:20 1020 30.12 849 25.07 15.5 59.9 43 3.1 37.7
10:25 1019 30.09 849 25.07 14.8 58.6 44 2.6 36.7
10:30 1019 30.09 849 25.07 14.7 58.4 42 1.9 35.4
10:35 1019 30.09 849 25.07 15.9 60.6 41 2.8 37
10:40 1019 30.09 849 25.07 16.3 61.3 39 2.5 36.5
10:45 1019 30.09 849 25.07 15.7 60.2 40 2.1 35.7
10:50 1019 30.09 849 25.07 16.4 61.5 39 2.6 36.6
10:55 1019 30.09 848 25.04 16.8 62.3 37 2.3 36.2
11:00 1019 30.09 848 25.04 16.9 62.3 37 2.2 36
11:05 1019 30.09 848 25.04 17.7 63.9 36 2.5 36.5
11:10 1019 30.09 848 25.04 16.8 62.3 39 2.9 37.2
11:15 1019 30.09 848 25.04 16.7 62.1 38 2.6 36.7
11:20 1019 30.09 848 25.04 17.2 63 37 2.6 36.8
11:25 1019 30.09 848 25.04 17.1 62.7 38 2.9 37.2
11:30 1019 30.09 848 25.04 17.4 63.3 38 2.9 37.2
11:35 1019 30.09 848 25.04 18.1 64.5 37 3.1 37.6
11:40 1019 30.09 848 25.04 17.9 64.3 37 3.1 37.6
11:45 1019 30.09 848 25.04 17.9 64.2 36 2.8 37
11:50 1019 30.09 848 25.04 18.5 65.3 34 2.5 36.5
11:55 1019 30.09 848 25.04 19.1 66.5 34 2.9 37.2
12:00 1019 30.09 848 25.04 18.5 65.2 37 3.5 38.3
12:05 1019 30.09 848 25.04 17.7 63.9 39 3.7 38.7
12:10 1019 30.09 848 25.04 17.9 64.1 36 2.7 36.9
12:15 1019 30.09 848 25.04 17.7 63.8 36 2.7 36.9
12:20 1019 30.09 848 25.04 19.1 66.4 33 2.8 37.1
12:25 1019 30.09 848 25.04 19.6 67.2 33 3.1 37.6
12:30 1019 30.09 848 25.04 18.7 65.7 35 3.1 37.6
12:35 1019 30.09 848 25.04 18.8 65.9 34 3 37.3
12:40 1019 30.09 848 25.04 19.1 66.4 37 4.2 39.6
12:45 1019 30.09 848 25.04 19.9 67.8 33 3.3 37.9
12:50 1019 30.09 848 25.04 19.9 67.9 34 3.7 38.7
12:55 1019 30.09 848 25.04 20.3 68.6 32 3.4 38.1
13:00 1019 30.09 848 25.04 20.2 68.3 34 4.1 39.3
13:05 1018 30.06 848 25.04 19.1 66.3 35 3.2 37.8
13:10 1018 30.06 848 25.04 20.1 68.2 32 3.1 37.6
13:15 1018 30.06 847 25.01 21.6 70.8 29 3 37.4
13:20 1018 30.06 847 25.01 21.4 70.6 30 3.2 37.7
13:25 1018 30.06 847 25.01 21.2 70.2 28 2.3 36.2
13:30 1018 30.06 847 25.01 22 71.7 28 2.7 36.8
13:35 1018 30.06 847 25.01 20.8 69.4 31 3 37.5
13:40 1018 30.06 847 25.01 20.2 68.3 31 2.7 36.9
13:45 1018 30.06 847 25.01 20.6 69 31 2.9 37.2
13:50 1018 30.06 847 25.01 20.8 69.5 29 2.5 36.4
13:55 1018 30.06 847 25.01 22.4 72.4 28 3.3 37.9
14:00 1018 30.06 847 25.01 22.9 73.3 29 4 39.2
14:05 1018 30.06 847 25.01 21.9 71.3 30 3.9 39
14:10 1018 30.06 847 25.01 22.3 72.2 28 3.3 37.9
14:15 1018 30.06 847 25.01 23 73.3 27 3.1 37.7
14:20 1018 30.06 847 25.01 23.7 74.7 28 4.3 39.7
14:25 1017 30.03 847 25.01 23 73.5 26 2.6 36.7
14:30 1017 30.03 847 25.01 23.4 74.1 27 3.8 38.8
14:35 1017 30.03 846 24.98 22.8 73 28 3.7 38.6
14:40 1017 30.03 846 24.98 23.2 73.8 26 2.8 37
14:45 1017 30.03 846 24.98 23.4 74.1 26 3 37.4
14:50 1017 30.03 846 24.98 22.9 73.3 26 2.9 37.2
14:55 1017 30.03 846 24.98 23.2 73.7 25 2.5 36.5
15:00 1017 30.03 846 24.98 24.1 75.4 23 2.2 36
15:05 1017 30.03 846 24.98 23.9 75 23 1.7 35
15:10 1017 30.03 846 24.98 23.7 74.7 24 2.4 36.3
15:15 1017 30.03 846 24.98 24.2 75.5 23 2.1 35.9
15:20 1017 30.03 846 24.98 24.2 75.6 23 2.2 35.9
15:25 1017 30.03 846 24.98 25.1 77.1 22 2.3 36.1
15:30 1017 30.03 846 24.98 24.8 76.7 22 1.9 35.4
15:35 1017 30.03 846 24.98 23.9 75.1 23 1.8 35.2
15:40 1017 30.03 846 24.98 23.2 73.7 24 1.7 35.1
15:45 1017 30.03 846 24.98 24.1 75.4 22 1.1 34
15:50 1017 30.03 846 24.98 24.1 75.4 22 1.1 34
15:55 1016 30 846 24.98 24.4 76 22 1.4 34.5
16:00 1016 30 846 24.98 25 77 21 1.7 35.1
16:05 1016 30 846 24.98 25.2 77.4 23 3.1 37.5
16:10 1016 30 846 24.98 24.8 76.6 21 1.1 34
16:15 1016 30 846 24.98 24.3 75.7 20 -0 31.9
16:20 1016 30 845 24.95 24.8 76.7 19 -0.1 31.8
16:25 1016 30 845 24.95 25.8 78.4 18 -0.1 31.9
16:30 1016 30 845 24.95 25.8 78.4 19 0.6 33.1
16:35 1016 30 845 24.95 25.6 78.1 16 -2 28.4
16:40 1016 30 845 24.95 24.1 75.4 14 -4.6 23.8
16:45 1016 30 845 24.95 24.6 76.3 14 -4 24.8
16:50 1016 30 845 24.95 25.1 77.1 15 -3 26.6
16:55 1016 30 845 24.95 24.7 76.4 15 -3.5 25.7
17:00 1016 30 845 24.95 24.9 76.8 14 -4.5 23.9
17:05 1016 30 845 24.95 25.6 78 13 -4.8 23.4
17:10 1016 30 845 24.95 25 77.1 13 -5.4 22.3
17:15 1016 30 845 24.95 24.9 76.8 14 -4.6 23.8
17:20 1016 30 845 24.95 24.5 76.1 14 -4.9 23.1
17:25 1016 30 845 24.95 24.6 76.3 14 -4.2 24.4
17:30 1016 30 845 24.95 24.2 75.6 14 -5.1 22.9
17:35 1016 30 845 24.95 24.8 76.7 15 -3.6 25.6
17:40 1015 29.97 845 24.95 24.9 76.8 14 -4 24.8
17:45 1015 29.97 845 24.95 24.8 76.6 14 -4 24.9
17:50 1015 29.97 845 24.95 24.7 76.5 15 -3.7 25.4
17:55 1015 29.97 845 24.95 25 77 14 -4.2 24.4
18:00 1015 29.97 845 24.95 24.5 76.1 15 -3.9 25.1
18:05 1015 29.97 845 24.95 24.4 75.9 15 -3.7 25.3
18:10 1015 29.97 844 24.92 25.1 77.1 14 -4.1 24.5
18:15 1015 29.97 844 24.92 25.4 77.8 14 -3.7 25.4
18:20 1015 29.97 844 24.92 24.8 76.6 14 -4.1 24.6
18:25 1015 29.97 844 24.92 23.8 74.8 15 -4 24.8
18:30 1015 29.97 844 24.92 23.5 74.3 16 -3.8 25.2
18:35 1015 29.97 844 24.92 23.2 73.7 26 2.8 37
18:40 1015 29.97 844 24.92 22.7 72.8 26 2.5 36.4
18:45 1015 29.97 844 24.92 22.4 72.4 28 3.1 37.6
18:50 1015 29.97 844 24.92 22.2 71.9 28 3.2 37.8
18:55 1015 29.97 844 24.92 22 71.6 29 3.3 38
19:00 1015 29.97 844 24.92 21.7 71 30 3.5 38.4
19:05 1015 29.97 844 24.92 21.5 70.8 30 3.3 38
19:10 1015 29.97 845 24.95 21.4 70.6 30 3.1 37.6
19:15 1015 29.97 845 24.95 21.3 70.4 30 3.2 37.7
19:20 1015 29.97 845 24.95 21.2 70.1 31 3.6 38.5
19:25 1015 29.97 845 24.95 20.9 69.7 31 3.4 38.2
19:30 1016 30 845 24.95 20.8 69.5 31 3.1 37.6
19:35 1016 30 845 24.95 20.8 69.4 31 3.2 37.7
19:40 1016 30 845 24.95 20.7 69.2 31 3.2 37.8
19:45 1016 30 845 24.95 20.7 69.3 31 3.1 37.6
19:50 1016 30 845 24.95 20.6 69.1 32 3.4 38
19:55 1016 30 845 24.95 20.5 68.9 32 3.5 38.3
20:00 1016 30 845 24.95 20.5 68.8 33 4 39.1
20:05 1016 30 846 24.98 20.4 68.7 29 2.1 35.7
20:10 1016 30 846 24.98 19.4 66.9 32 2.4 36.4
20:15 1016 30 846 24.98 18.9 66 34 2.6 36.8
20:20 1017 30.03 846 24.98 18.4 65.2 35 2.8 37
20:25 1017 30.03 846 24.98 18.1 64.6 36 2.8 37
20:30 1017 30.03 846 24.98 18 64.4 36 3 37.4
20:35 1017 30.03 846 24.98 18 64.3 34 2.2 35.9
20:40 1017 30.03 846 24.98 18 64.4 36 3 37.4
20:45 1017 30.03 846 24.98 17.9 64.3 37 3.3 38
20:50 1017 30.03 846 24.98 17.9 64.3 38 3.4 38.1
20:55 1017 30.03 846 24.98 17.9 64.3 38 3.6 38.6
21:00 1017 30.03 846 24.98 18 64.3 36 2.7 36.8
21:05 1017 30.03 846 24.98 18 64.4 36 2.7 36.8
21:10 1017 30.03 846 24.98 17.9 64.1 36 2.7 36.8
21:15 1017 30.03 846 24.98 17.9 64.2 37 3.1 37.6
21:20 1017 30.03 846 24.98 17.9 64.2 37 3.3 37.9
21:25 1017 30.03 846 24.98 17.9 64.1 38 3.6 38.5
21:30 1017 30.03 846 24.98 17.9 64.3 39 4 39.2
21:35 1017 30.03 846 24.98 17.7 63.9 37 3 37.4
21:40 1017 30.03 846 24.98 17.5 63.5 37 2.8 37.1
21:45 1017 30.03 846 24.98 17.5 63.5 38 3 37.4
21:50 1017 30.03 846 24.98 17.4 63.2 38 3.2 37.7
21:55 1017 30.03 846 24.98 17.3 63.1 37 2.7 36.9
22:00 1017 30.03 846 24.98 17.4 63.4 43 4.9 40.8
22:05 1016 30 846 24.98 17.8 64 35 2.3 36.2
22:10 1017 30.03 846 24.98 17.5 63.5 38 3 37.4
22:15 1017 30.03 846 24.98 17.1 62.8 40 3.7 38.6
22:20 1017 30.03 846 24.98 16.8 62.2 43 4.3 39.7
22:25 1017 30.03 846 24.98 16.4 61.6 47 5.3 41.6
22:30 1017 30.03 846 24.98 16.2 61.2 49 5.6 42.1
22:35 1017 30.03 846 24.98 16.1 61 49 5.6 42.1
22:40 1017 30.03 846 24.98 16 60.8 50 5.6 42
22:45 1016 30 846 24.98 16 60.7 50 5.6 42
22:50 1016 30 846 24.98 15.9 60.6 50 5.7 42.2
22:55 1016 30 845 24.95 15.9 60.6 51 5.8 42.4
23:00 1016 30 845 24.95 15.7 60.3 51 5.8 42.5
23:05 1016 30 845 24.95 15.6 60.1 51 5.6 42.1
23:10 1016 30 845 24.95 15.5 60 51 5.6 42
23:15 1016 30 845 24.95 15.5 59.8 50 5.1 41.2
23:20 1016 30 845 24.95 15.6 60 50 5.2 41.3
23:25 1016 30 845 24.95 15.5 60 51 5.5 41.9
23:30 1016 30 845 24.95 15.3 59.6 52 5.5 41.9
23:35 1016 30 845 24.95 15.2 59.3 51 5.1 41.1
23:40 1016 30 845 24.95 15.3 59.5 51 5.4 41.8
23:45 1016 30 845 24.95 15.2 59.4 52 5.6 42.2
23:50 1016 30 845 24.95 15.1 59.2 53 5.6 42
23:55 1016 30 845 24.95 15.1 59.1 53 5.6 42.1
24:00 1016 30 845 24.95 14.9 58.9 54 5.9 42.6